Aviation Digital Data Service (ADDS)

Output produced by METARs form (0642 UTC 27 March 2017)
found at http://www.aviationweather.gov/adds/metars/
 
KLAF 270525Z 2706/2806 24006KT P6SM BKN015 
     FM270700 25005KT P6SM BKN020 
     FM271200 VRB03KT P6SM OVC035 
     FM271800 13006KT P6SM VCSH OVC035 
     FM272100 13007KT 3SM SHRA VCTS OVC035CB 
     FM280000 05005KT 4SM -SHRA OVC040 
     FM280300 03005KT 3SM -SHRA OVC015 AMD LTD TO CLD VIS AND WIND TIL 271300
       
KLAL 270531Z 2706/2806 11003KT P6SM FEW050 
     FM270900 VRB03KT 6SM BR FEW050 
     FM271400 09005KT P6SM FEW035 
     FM271800 07006KT P6SM SCT050 
     FM280000 10004KT P6SM FEW060 AMD NOT SKED 2706/2711
       
KLAN 270543Z 2706/2806 20006KT 3SM BR OVC006 
     FM270900 24005KT 4SM BR OVC004 
     FM271800 25008KT P6SM OVC015 
     FM272100 25008KT P6SM OVC050 
     FM280000 28003KT 4SM BR OVC015
       
KLAR 270520Z 2706/2806 18006KT P6SM BKN060 
     FM271500 22010KT P6SM BKN080 
     FM272000 19013KT P6SM VCSH BKN060 OVC100
       
KLAS 270528Z 2706/2806 21009KT P6SM FEW150 FEW250 
     FM271800 26013G22KT P6SM SCT100 
     FM272200 31015G25KT P6SM BKN100 
     FM280200 34020G30KT P6SM SCT100
       
KLAX 270532Z 2706/2812 26010KT P6SM SCT022 SCT100 
     FM270900 VRB03KT P6SM BKN025 BKN100 
     FM271700 31007KT P6SM SCT040 
     FM271900 27012KT P6SM SKC 
     FM272100 25016G26KT P6SM SKC 
     FM280300 27014KT P6SM SKC 
     FM280700 31010KT P6SM SKC
       
KLBB 270520Z 2706/2806 01011KT P6SM FEW250 
     FM272100 16011KT P6SM SCT250
       
KLBE 270533Z 2706/2806 14009KT P6SM VCSH SCT015 OVC050 
     TEMPO 2709/2712 5SM -SHRA OVC015 
     FM271400 23007KT P6SM OVC035
       
KLBF 270536Z 2706/2806 10006KT P6SM SCT060 
     FM270800 VRB03KT P6SM SCT015 
     FM270900 00000KT P6SM SCT008 OVC015 
     TEMPO 2712/2715 2SM BR OVC008 
     FM271700 16004KT P6SM SCT015 SCT050 
     FM272000 16007KT P6SM SCT050 SCT250 
     FM280000 13006KT P6SM BKN250
       
KLBT 270539Z 2706/2806 18003KT P6SM FEW060 
     TEMPO 2709/2713 3SM BR 
     FM271300 19004KT P6SM BKN060 
     PROB30 2718/2720 4SM -SHRA OVC025 
     FM272300 20006KT P6SM SCT025 
     FM280400 18005KT P6SM SCT003
       
KLCK 270534Z 2706/2806 21007KT P6SM SCT022 SCT060 
     FM270900 24006KT P6SM BKN025 
     FM271600 24007KT P6SM SCT025 BKN090 
     FM272100 20006KT P6SM VCSH SCT025 BKN120 
     FM280100 16005KT P6SM -SHRA VCTS SCT025CB BKN070 
     FM280300 16006KT 5SM -SHRA VCTS BKN025CB OVC070
       
KLCH 270520Z 2706/2806 16008KT P6SM BKN015 BKN025 
     FM271600 19012KT P6SM SCT025 BKN035
       
KLEB 270522Z 2706/2806 10004KT P6SM OVC025 
     FM271000 VRB03KT 4SM -FZRAPL BR OVC015 
     FM271300 VRB03KT 2SM -RA BR OVC012 
     FM272100 VRB03KT 4SM -SHRA OVC020
       
KLEE 270539Z 2706/2806 VRB03KT P6SM FEW090 
     FM271400 13004KT P6SM FEW040 SCT250 
     FM272100 10006KT P6SM FEW050 SCT250 
     FM280300 14005KT P6SM FEW050
       
KLEX 270524Z 2706/2806 21005KT P6SM SCT050 
     FM271000 17006KT P6SM BKN080 
     FM272000 19008KT P6SM VCSH BKN035 
     FM280200 17006KT 5SM -SHRA BR VCTS BKN035CB
       
TAF KLFI 270100Z 2701/2807 12009KT 9999 SCT060 QNH3011INS 
     BECMG 2713/2714 15010G15KT 9999 FEW030 SCT060 QNH2998INS TX23/2720Z TN09/2711Z
       
KLFK 270522Z 2706/2806 16010KT P6SM BKN020 
     TEMPO 2709/2713 4SM BR OVC007 
     FM271900 21008KT P6SM OVC050 
     FM280100 16003KT P6SM SCT025
       
KLFT 270520Z 2706/2806 17006KT P6SM FEW015 SCT025 
     FM270900 17006KT P6SM BKN025 
     FM271500 19010KT P6SM SCT025 BKN035
       
KLGA 270541Z 2706/2806 06010KT 2SM -DZ BR OVC004 
     FM270900 07008KT 1SM -RADZ BR OVC004 
     FM271400 16007KT 2SM -RA BR OVC006 
     FM271600 18008KT 4SM -RA BR OVC015 
     FM271900 21008KT P6SM BKN030 
     FM272100 21008KT P6SM BKN050 
     FM280300 19005KT 5SM BR OVC020
       
KLGB 270532Z 2706/2806 30005KT P6SM BKN120 
     FM271000 VRB03KT P6SM BKN025 BKN120 
     FM271700 VRB03KT P6SM SCT040 
     FM272100 26015G22KT P6SM SKC 
     FM280300 28013KT P6SM SKC
       
KLGU 270527Z 2706/2806 VRB04KT P6SM BKN070 OVC090 
     FM270900 VRB05KT P6SM VCSH SCT040 OVC060 
     FM271200 34005KT P6SM VCSH BKN040 OVC070 
     FM272200 33008KT 5SM -RA BR SCT015 OVC040
       
KLIT 270533Z 2706/2806 14008KT P6SM VCSH BKN100 OVC250 
     FM270800 17008KT P6SM VCTS BKN050CB OVC100 
     TEMPO 2708/2712 VRB20G35KT 3SM TSRA BR OVC025CB 
     FM271200 18008KT P6SM VCSH OVC025 
     FM271600 22008KT P6SM OVC030 
     FM271900 24012G22KT P6SM SCT030 BKN250
       
KLLQ 270533Z 2706/2806 18007KT P6SM VCSH BKN080 BKN250 
     FM270800 19009KT P6SM VCTS BKN025 OVC050CB 
     TEMPO 2708/2712 5SM -TSRA BR OVC025CB 
     FM271200 18008KT P6SM VCTS OVC025CB 
     FM271600 22008KT P6SM VCSH OVC030 
     FM271900 24012G22KT P6SM SCT030 BKN250
       
KLMT 270533Z 2706/2806 26008KT 5SM -RASN SCT020 OVC035 
     FM271000 23005KT P6SM SCT030 OVC050 
     FM271900 31012G18KT P6SM SCT040 
     FM280300 30005KT P6SM FEW040 SCT100
       
KLND 270520Z 2706/2806 VRB06KT P6SM SCT080 BKN150 
     FM272200 VRB05KT P6SM VCSH SCT040 BKN070 
     FM280200 06006KT 6SM -RA BR SCT015 BKN025
       
KLNK 270520Z 2706/2806 02003KT P6SM OVC012 
     TEMPO 2709/2713 5SM -DZ BR OVC009 
     FM272000 02007KT P6SM SCT025
       
KLNS 270611Z 2706/2806 09008KT 2SM -RADZ BR OVC003 
     FM271600 16004KT 5SM BR BKN010 
     FM272000 19005KT P6SM SCT025 BKN050 
     FM280300 12003KT 4SM BR OVC050
       
KLOZ 270521Z 2706/2806 VRB03KT P6SM SCT080 
     FM270900 00000KT P6SM BKN070 
     FM271500 20006KT P6SM -SHRA BKN050 
     FM271800 21007KT P6SM -SHRA VCTS OVC050CB 
     FM280000 18006KT P6SM -SHRA BKN050
       
KLRD 270534Z 2706/2806 14012KT P6SM SCT250 
     FM270800 12007KT P6SM BKN015 
     TEMPO 2710/2713 6SM BR SCT008 BKN015 
     FM271500 12008KT P6SM SCT020 BKN030 
     FM271700 11012KT P6SM BKN040 
     FM272100 15010KT P6SM SCT050
       
TAF KLRF 262300Z 2623/2805 14006KT 9999 FEW070 QNH2984INS 
     BECMG 2705/2706 15006KT 8000 -SHRA SCT020 QNH2985INS 
     TEMPO 2707/2710 16020G40KT 3200 TSRA BKN020CB 
     BECMG 2709/2710 18006KT 9999 NSW BKN015 QNH2982INS 
     BECMG 2717/2718 21012G18KT 9999 BKN020 QNH2985INS 
     BECMG 2723/2724 25006KT 9999 BKN030 QNH2982INS 
     BECMG 2802/2803 35006KT 9999 OVC014 QNH2988INS TX26/2720Z TN17/2712Z
       
KLRU 270540Z 2706/2806 29010KT P6SM FEW250 
     FM271600 17008KT P6SM FEW200 
     FM272000 24014KT P6SM SCT250
       
KLSE 270520Z 2706/2806 32004KT 5SM BR OVC013 
     FM270900 34004KT 4SM BR OVC009 
     FM271800 35004KT P6SM OVC015 
     FM280300 02004KT P6SM BKN040
       
TAF KLSV 262302Z 2623/2805 09009KT 9999 FEW150 SCT200 QNH2989INS 
     BECMG 2702/2703 VRB06KT 9999 FEW180 QNH2984INS 
     BECMG 2708/2709 25012KT 9999 FEW080 SCT200 QNH2978INS 
     BECMG 2718/2719 32015G25KT 9999 FEW150 520006 QNH2976INS 
     TEMPO 2722/2802 33025G35KT 530006 TX23/2623Z TN12/2712Z
       
KLVK 270520Z 2706/2806 22013G19KT 4SM -RA BR VCSH BKN022 OVC030 
     FM270800 25006KT P6SM BKN025 
     FM271700 27012KT P6SM FEW035 SCT200 
     FM272100 29013KT P6SM FEW035 
     FM280400 28006KT P6SM SKC
       
KLVM 270523Z 2706/2806 22014KT P6SM VCSH SCT080 BKN100 
     FM271100 25010KT P6SM SCT040 BKN100 
     FM272100 25012KT P6SM VCSH BKN060
       
KLVS 270533Z 2706/2806 12007KT P6SM SCT200 
     FM271100 16006KT P6SM SCT030 SCT200 
     FM271600 19012G18KT P6SM FEW100 SCT200 
     FM272000 20018G28KT P6SM SCT070 SCT100
       
KLWB 270520Z 2706/2806 00000KT P6SM OVC040 
     TEMPO 2706/2708 5SM -SHRA 
     FM271000 00000KT 6SM BR VCSH BKN070 
     TEMPO 2710/2713 4SM -SHRA OVC025 
     FM271600 23006KT P6SM BKN040 
     FM272000 24006KT P6SM BKN150 
     FM280000 00000KT P6SM BKN080
       
KLWS 270523Z 2706/2806 08005KT P6SM -SHRA BKN045 OVC060 
     FM270700 17004KT P6SM -RA BKN025 OVC040 
     FM271000 27005KT P6SM VCSH FEW005 BKN035 
     FM271800 31006KT P6SM VCSH BKN035 BKN080 
     FM280300 25006KT P6SM SCT060 SCT120 BKN200
       
KLWT 270520Z 2706/2806 12007KT P6SM VCSH SCT040 OVC070 
     FM271400 23007KT P6SM SCT080 BKN150 
     FM272200 31010KT P6SM VCSH SCT040 BKN070 
     PROB30 2800/2806 -SHRASN
       
KLYH 270520Z 2706/2806 13005KT 5SM BR VCSH BKN003 
     FM271000 19005KT 3SM BR BKN100 
     TEMPO 2710/2712 OVC006 
     FM271400 21006KT P6SM BKN050 
     FM272200 21006KT P6SM SCT200 
     FM280100 VRB03KT P6SM BKN110